Cana, Virginia
Current Conditions -  °F | °C
As of 11:15 PM on Tuesday 21 Oct 2014 (Local Time) from KMWK Reporting Station
Clear Clear  
Wind Chill: 52°   Ceiling: Unl
Heat Index: 52°   Visibility: 10mi
Dew Point: 40°   Wind: 7mph
Humidity: 64%   Direction: 300°WNW
Pressure: 30.01"   Gusts: 16mph
Location:  36.59°N, 80.67°W
Report Text: KMWK 220315Z AUTO 30006G14KT 10SM CLR 11/05 A3001 RMK AO2 T01120046
Loading
Personal Weather Stations






























Interactive Weather Map
Tropical Storm Tracking
New forecast layout! Learn more

10-Day Weather Forecast

Advertisements
Track Severe Weather on mobile